createdAt,value
2023-05-21T00:00:38.933Z,100364.00
2023-05-21T00:03:42.316Z,100358.75
2023-05-21T00:06:44.697Z,100357.16
2023-05-21T00:09:47.228Z,100360.56
2023-05-21T00:12:49.453Z,100357.41
2023-05-21T00:15:52.111Z,100368.38
2023-05-21T00:18:54.707Z,100368.25
2023-05-21T00:21:57.505Z,100361.38
2023-05-21T00:24:59.966Z,100359.88
2023-05-21T00:28:02.770Z,100355.53
2023-05-21T00:31:05.025Z,100366.78
2023-05-21T00:34:07.558Z,100367.13
2023-05-21T00:37:10.080Z,100369.37
2023-05-21T00:40:12.922Z,100369.25
2023-05-21T00:43:15.267Z,100368.41
2023-05-21T00:46:19.827Z,100368.25
2023-05-21T00:49:24.449Z,100367.88
2023-05-21T00:52:27.500Z,100358.75
2023-05-21T00:55:30.360Z,100356.28
2023-05-21T00:58:33.973Z,100365.53
2023-05-21T01:01:37.302Z,100353.13
2023-05-21T01:04:40.117Z,100356.28
2023-05-21T01:07:43.404Z,100359.72
2023-05-21T01:10:46.014Z,100362.03
2023-05-21T01:13:49.936Z,100354.63
2023-05-21T01:16:53.661Z,100352.13
2023-05-21T01:19:58.051Z,100339.44
2023-05-21T01:23:01.822Z,100342.50
2023-05-21T01:26:04.990Z,100336.06
2023-05-21T01:29:14.181Z,100340.78
2023-05-21T01:32:26.189Z,100340.00
2023-05-21T01:35:50.514Z,100337.53
2023-05-21T01:39:18.858Z,100346.91
2023-05-21T01:42:23.643Z,100348.91
2023-05-21T01:45:28.964Z,100351.81
2023-05-21T01:48:31.776Z,100344.91
2023-05-21T01:51:34.471Z,100348.59
2023-05-21T01:54:36.911Z,100337.06
2023-05-21T01:57:39.316Z,100339.34
2023-05-21T02:00:42.185Z,100347.03
2023-05-21T02:03:44.766Z,100340.97
2023-05-21T02:06:47.088Z,100349.94
2023-05-21T02:09:49.642Z,100349.34
2023-05-21T02:12:52.941Z,100346.19
2023-05-21T02:15:56.261Z,100350.41
2023-05-21T02:19:00.636Z,100346.72
2023-05-21T02:22:03.314Z,100335.25
2023-05-21T02:25:09.277Z,100343.72
2023-05-21T02:28:12.715Z,100339.75
2023-05-21T02:31:15.041Z,100337.41
2023-05-21T02:34:20.535Z,100332.78
2023-05-21T02:37:23.010Z,100333.16
2023-05-21T02:40:25.605Z,100344.28
2023-05-21T02:43:28.100Z,100343.56
2023-05-21T02:46:30.781Z,100328.56
2023-05-21T02:49:33.501Z,100332.63
2023-05-21T02:52:36.039Z,100334.22
2023-05-21T02:55:38.456Z,100336.84
2023-05-21T02:58:41.643Z,100333.06
2023-05-21T03:01:45.229Z,100334.66
2023-05-21T03:04:47.928Z,100345.41
2023-05-21T03:07:51.347Z,100343.81
2023-05-21T03:10:53.848Z,100336.66
2023-05-21T03:13:56.055Z,100335.00
2023-05-21T03:16:58.652Z,100339.56
2023-05-21T03:20:00.875Z,100333.84
2023-05-21T03:23:04.338Z,100329.97
2023-05-21T03:26:06.553Z,100329.88
2023-05-21T03:29:09.128Z,100332.78
2023-05-21T03:32:11.624Z,100330.53
2023-05-21T03:35:14.211Z,100325.66
2023-05-21T03:38:16.596Z,100321.06
2023-05-21T03:41:19.133Z,100334.47
2023-05-21T03:44:21.767Z,100327.06
2023-05-21T03:47:24.715Z,100335.00
2023-05-21T03:50:27.037Z,100334.47
2023-05-21T03:53:29.601Z,100338.09
2023-05-21T03:56:31.843Z,100346.47
2023-05-21T03:59:34.369Z,100342.84
2023-05-21T04:02:36.800Z,100342.69
2023-05-21T04:05:39.395Z,100344.16
2023-05-21T04:08:42.689Z,100349.37
2023-05-21T04:11:45.419Z,100350.88
2023-05-21T04:14:47.861Z,100354.06
2023-05-21T04:17:50.412Z,100347.88
2023-05-21T04:20:53.792Z,100353.44
2023-05-21T04:23:57.592Z,100355.53
2023-05-21T04:27:01.400Z,100358.72
2023-05-21T04:30:06.067Z,100359.50
2023-05-21T04:33:09.970Z,100356.50
2023-05-21T04:36:12.509Z,100353.94
2023-05-21T04:39:15.659Z,100352.78
2023-05-21T04:42:19.423Z,100350.41
2023-05-21T04:45:24.541Z,100356.59
2023-05-21T04:48:28.760Z,100358.53
2023-05-21T04:51:31.379Z,100348.25
2023-05-21T04:54:34.119Z,100352.09
2023-05-21T04:57:36.626Z,100353.78
2023-05-21T05:00:40.283Z,100347.69
2023-05-21T05:03:42.654Z,100350.56
2023-05-21T05:06:45.294Z,100349.16
2023-05-21T05:09:47.529Z,100349.88
2023-05-21T05:12:50.100Z,100349.63
2023-05-21T05:15:54.778Z,100344.84
2023-05-21T05:18:57.530Z,100345.87
2023-05-21T05:21:59.704Z,100351.78
2023-05-21T05:25:02.232Z,100344.38
2023-05-21T05:28:04.679Z,100341.47
2023-05-21T05:31:07.657Z,100342.22
2023-05-21T05:34:09.859Z,100346.00
2023-05-21T05:37:13.462Z,100345.56
2023-05-21T05:40:16.077Z,100352.25
2023-05-21T05:43:18.785Z,100344.94
2023-05-21T05:46:21.107Z,100340.31
2023-05-21T05:49:23.769Z,100345.87
2023-05-21T05:52:26.196Z,100340.56
2023-05-21T05:55:28.641Z,100346.22
2023-05-21T05:58:31.170Z,100341.28
2023-05-21T06:01:34.538Z,100350.06
2023-05-21T06:04:37.076Z,100336.09
2023-05-21T06:07:40.922Z,100340.28
2023-05-21T06:10:43.408Z,100341.16
2023-05-21T06:13:45.824Z,100340.44
2023-05-21T06:16:49.327Z,100328.91
2023-05-21T06:19:51.584Z,100329.75
2023-05-21T06:22:54.140Z,100327.91
2023-05-21T06:25:56.682Z,100322.56
2023-05-21T06:29:00.908Z,100323.06
2023-05-21T06:32:04.473Z,100321.19
2023-05-21T06:35:07.684Z,100314.69
2023-05-21T06:38:10.099Z,100316.69
2023-05-21T06:41:12.652Z,100311.81
2023-05-21T06:44:17.146Z,100309.09
2023-05-21T06:47:21.630Z,100302.13
2023-05-21T06:50:24.720Z,100308.03
2023-05-21T06:53:27.788Z,100309.00
2023-05-21T06:56:30.550Z,100310.28
2023-05-21T06:59:33.013Z,100304.59
2023-05-21T07:02:36.412Z,100296.91
2023-05-21T07:05:39.463Z,100297.19
2023-05-21T07:08:41.936Z,100293.84
2023-05-21T07:11:47.088Z,100300.00
2023-05-21T07:14:50.614Z,100297.16
2023-05-21T07:17:53.259Z,100297.59
2023-05-21T07:20:57.088Z,100302.59
2023-05-21T07:24:00.171Z,100296.66
2023-05-21T07:27:08.740Z,100291.00
2023-05-21T07:30:17.031Z,100286.09
2023-05-21T07:33:20.722Z,100279.09
2023-05-21T07:36:23.526Z,100282.75
2023-05-21T07:39:26.153Z,100284.81
2023-05-21T07:42:28.704Z,100280.97
2023-05-21T07:45:31.277Z,100285.38
2023-05-21T07:48:35.459Z,100289.38
2023-05-21T07:51:38.254Z,100284.63
2023-05-21T07:54:41.086Z,100287.34
2023-05-21T07:57:43.493Z,100282.59
2023-05-21T08:00:47.571Z,100279.78
2023-05-21T08:03:50.415Z,100277.34
2023-05-21T08:06:53.760Z,100283.56
2023-05-21T08:09:56.525Z,100275.97
2023-05-21T08:12:58.825Z,100276.31
2023-05-21T08:16:01.687Z,100279.69
2023-05-21T08:19:04.458Z,100273.97
2023-05-21T08:22:07.632Z,100280.97
2023-05-21T08:25:10.175Z,100273.09
2023-05-21T08:28:12.790Z,100279.72
2023-05-21T08:31:18.379Z,100285.94
2023-05-21T08:34:21.058Z,100275.84
2023-05-21T08:37:23.701Z,100275.06
2023-05-21T08:40:29.444Z,100279.50
2023-05-21T08:43:33.604Z,100278.34
2023-05-21T08:46:41.722Z,100280.41
2023-05-21T08:49:45.530Z,100276.06
2023-05-21T08:52:49.928Z,100282.62
2023-05-21T08:55:54.108Z,100280.87
2023-05-21T08:58:58.754Z,100281.19
2023-05-21T09:02:02.131Z,100277.50
2023-05-21T09:05:05.744Z,100285.44
2023-05-21T09:08:18.867Z,100283.41
2023-05-21T09:11:22.427Z,100270.06
2023-05-21T09:14:26.448Z,100275.06
2023-05-21T09:17:29.671Z,100277.84
2023-05-21T09:20:32.666Z,100269.28
2023-05-21T09:23:35.396Z,100273.00
2023-05-21T09:26:37.699Z,100270.22
2023-05-21T09:29:42.197Z,100263.84
2023-05-21T09:32:45.920Z,100267.34
2023-05-21T09:35:50.016Z,100274.37
2023-05-21T09:38:52.472Z,100268.00
2023-05-21T09:41:57.460Z,100270.91
2023-05-21T09:45:01.037Z,100267.94
2023-05-21T09:48:04.419Z,100268.38
2023-05-21T09:51:21.324Z,100269.34
2023-05-21T09:54:24.536Z,100269.88
2023-05-21T09:57:26.858Z,100266.63
2023-05-21T10:00:29.396Z,100260.31
2023-05-21T10:03:33.462Z,100260.38
2023-05-21T10:06:43.707Z,100259.06
2023-05-21T10:09:50.103Z,100254.22
2023-05-21T10:12:59.634Z,100254.66
2023-05-21T10:16:04.760Z,100252.31
2023-05-21T10:19:10.994Z,100240.41
2023-05-21T10:22:14.142Z,100249.12
2023-05-21T10:25:17.414Z,100233.56
2023-05-21T10:28:20.399Z,100239.00
2023-05-21T10:31:23.490Z,100240.28
2023-05-21T10:34:27.996Z,100242.19
2023-05-21T10:37:30.365Z,100242.84
2023-05-21T10:40:33.051Z,100242.72
2023-05-21T10:43:48.870Z,100236.81
2023-05-21T10:47:28.960Z,100235.59
2023-05-21T10:50:39.957Z,100234.50
2023-05-21T10:53:56.678Z,100237.34
2023-05-21T10:57:40.793Z,100234.56
2023-05-21T11:00:43.950Z,100223.94
2023-05-21T11:03:50.014Z,100234.19
2023-05-21T11:06:52.634Z,100220.81
2023-05-21T11:10:33.502Z,100215.22
2023-05-21T11:13:48.812Z,100214.19
2023-05-21T11:16:51.272Z,100201.47
2023-05-21T11:19:54.709Z,100216.28
2023-05-21T11:22:58.260Z,100214.66
2023-05-21T11:26:02.018Z,100216.16
2023-05-21T11:29:04.127Z,100207.03
2023-05-21T11:32:09.242Z,100204.97
2023-05-21T11:35:14.031Z,100214.75
2023-05-21T11:38:17.884Z,100212.41
2023-05-21T11:41:20.255Z,100213.34
2023-05-21T11:44:42.802Z,100208.88
2023-05-21T11:47:45.030Z,100207.72
2023-05-21T11:50:47.532Z,100206.03
2023-05-21T11:53:51.217Z,100206.78
2023-05-21T11:56:55.104Z,100203.41
2023-05-21T11:59:58.587Z,100197.91
2023-05-21T12:03:01.976Z,100201.75
2023-05-21T12:06:05.750Z,100197.75
2023-05-21T12:09:10.101Z,100186.00
2023-05-21T12:12:15.112Z,100192.00
2023-05-21T12:15:18.271Z,100185.56
2023-05-21T12:18:21.839Z,100179.97
2023-05-21T12:21:24.099Z,100182.87
2023-05-21T12:24:27.185Z,100184.50
2023-05-21T12:27:31.254Z,100179.34
2023-05-21T12:30:35.147Z,100176.72
2023-05-21T12:33:37.475Z,100171.91
2023-05-21T12:36:46.162Z,100170.91
2023-05-21T12:39:50.472Z,100165.81
2023-05-21T12:42:52.980Z,100161.59
2023-05-21T12:45:55.209Z,100162.87
2023-05-21T12:48:57.652Z,100166.88
2023-05-21T12:52:01.796Z,100151.31
2023-05-21T12:55:05.522Z,100150.97
2023-05-21T12:58:09.187Z,100153.53
2023-05-21T13:01:12.429Z,100151.16
2023-05-21T13:04:14.778Z,100145.87
2023-05-21T13:07:18.238Z,100144.84
2023-05-21T13:10:20.476Z,100147.03
2023-05-21T13:13:22.957Z,100139.88
2023-05-21T13:16:25.347Z,100133.59
2023-05-21T13:19:28.082Z,100129.47
2023-05-21T13:22:30.444Z,100124.72
2023-05-21T13:25:32.950Z,100130.66
2023-05-21T13:28:35.166Z,100131.31
2023-05-21T13:31:37.688Z,100123.84
2023-05-21T13:34:39.898Z,100119.25
2023-05-21T13:37:42.683Z,100113.66
2023-05-21T13:40:44.847Z,100113.00
2023-05-21T13:43:47.296Z,100108.03
2023-05-21T13:46:49.660Z,100101.03
2023-05-21T13:49:52.398Z,100102.78
2023-05-21T13:52:54.705Z,100098.81
2023-05-21T13:55:57.211Z,100097.53
2023-05-21T13:59:00.111Z,100097.00
2023-05-21T14:02:02.758Z,100099.62
2023-05-21T14:05:05.523Z,100095.69
2023-05-21T14:08:08.143Z,100095.06
2023-05-21T14:11:10.676Z,100098.59
2023-05-21T14:14:18.724Z,100094.13
2023-05-21T14:17:21.337Z,100091.78
2023-05-21T14:20:23.539Z,100089.59
2023-05-21T14:23:26.037Z,100090.69
2023-05-21T14:26:28.253Z,100094.81
2023-05-21T14:29:30.710Z,100090.19
2023-05-21T14:32:32.906Z,100081.75
2023-05-21T14:35:35.797Z,100078.69
2023-05-21T14:38:38.099Z,100076.62
2023-05-21T14:41:40.713Z,100078.94
2023-05-21T14:44:42.853Z,100077.41
2023-05-21T14:47:46.014Z,100074.53
2023-05-21T14:50:50.040Z,100075.75
2023-05-21T14:53:52.474Z,100076.59
2023-05-21T14:56:55.238Z,100072.97
2023-05-21T14:59:57.725Z,100065.53
2023-05-21T15:03:00.599Z,100066.31
2023-05-21T15:06:03.474Z,100065.25
2023-05-21T15:09:05.720Z,100064.63
2023-05-21T15:12:08.214Z,100066.22
2023-05-21T15:15:12.226Z,100057.28
2023-05-21T15:18:14.749Z,100061.69
2023-05-21T15:21:16.977Z,100059.62
2023-05-21T15:24:19.534Z,100060.72
2023-05-21T15:27:21.772Z,100061.47
2023-05-21T15:30:27.165Z,100061.22
2023-05-21T15:33:29.401Z,100060.72
2023-05-21T15:36:31.877Z,100057.03
2023-05-21T15:39:34.071Z,100059.03
2023-05-21T15:42:36.641Z,100059.53
2023-05-21T15:45:39.360Z,100053.63
2023-05-21T15:48:42.079Z,100054.94
2023-05-21T15:51:44.355Z,100061.25
2023-05-21T15:54:47.232Z,100056.56
2023-05-21T15:57:49.853Z,100055.97
2023-05-21T16:00:52.529Z,100062.69
2023-05-21T16:03:55.467Z,100057.75
2023-05-21T16:06:57.742Z,100058.97
2023-05-21T16:10:00.308Z,100065.78
2023-05-21T16:13:02.513Z,100066.91
2023-05-21T16:16:05.310Z,100066.47
2023-05-21T16:19:07.633Z,100062.16
2023-05-21T16:22:10.898Z,100072.81
2023-05-21T16:25:13.370Z,100069.22
2023-05-21T16:28:16.134Z,100069.50
2023-05-21T16:31:18.418Z,100068.28
2023-05-21T16:34:20.923Z,100072.25
2023-05-21T16:37:23.145Z,100074.69
2023-05-21T16:40:25.860Z,100076.34
2023-05-21T16:43:28.030Z,100072.50
2023-05-21T16:46:30.656Z,100076.56
2023-05-21T16:49:32.912Z,100079.38
2023-05-21T16:52:35.367Z,100075.47
2023-05-21T16:55:38.538Z,100075.06
2023-05-21T16:58:41.238Z,100083.00
2023-05-21T17:01:43.496Z,100084.31
2023-05-21T17:04:46.393Z,100084.41
2023-05-21T17:07:48.657Z,100083.69
2023-05-21T17:10:51.201Z,100092.44
2023-05-21T17:13:53.404Z,100094.50
2023-05-21T17:16:56.084Z,100092.25
2023-05-21T17:19:58.493Z,100089.53
2023-05-21T17:23:01.210Z,100090.41
2023-05-21T17:26:03.509Z,100090.41
2023-05-21T17:29:06.205Z,100092.84
2023-05-21T17:32:08.486Z,100081.47
2023-05-21T17:35:11.110Z,100088.59
2023-05-21T17:38:14.077Z,100081.94
2023-05-21T17:41:18.957Z,100087.13
2023-05-21T17:44:21.629Z,100090.72
2023-05-21T17:47:24.146Z,100087.63
2023-05-21T17:50:26.654Z,100092.44
2023-05-21T17:53:29.161Z,100091.69
2023-05-21T17:56:40.455Z,100090.56
2023-05-21T17:59:45.164Z,100089.88
2023-05-21T18:02:47.442Z,100094.22
2023-05-21T18:05:50.586Z,100087.97
2023-05-21T18:08:52.820Z,100090.38
2023-05-21T18:11:55.541Z,100092.00
2023-05-21T18:14:57.992Z,100090.03
2023-05-21T18:18:00.488Z,100089.66
2023-05-21T18:21:02.720Z,100084.97
2023-05-21T18:24:06.403Z,100088.50
2023-05-21T18:27:08.564Z,100089.69
2023-05-21T18:30:11.565Z,100088.16
2023-05-21T18:33:15.344Z,100093.63
2023-05-21T18:36:18.674Z,100095.22
2023-05-21T18:39:24.514Z,100099.13
2023-05-21T18:42:28.181Z,100100.31
2023-05-21T18:45:30.552Z,100101.47
2023-05-21T18:48:33.108Z,100103.81
2023-05-21T18:51:35.339Z,100104.59
2023-05-21T18:54:37.905Z,100106.91
2023-05-21T18:57:40.374Z,100106.50
2023-05-21T19:00:43.375Z,100111.97
2023-05-21T19:03:45.584Z,100110.75
2023-05-21T19:06:48.060Z,100110.31
2023-05-21T19:09:50.255Z,100110.28
2023-05-21T19:12:52.725Z,100120.84
2023-05-21T19:15:55.040Z,100112.16
2023-05-21T19:18:57.597Z,100117.63
2023-05-21T19:21:59.797Z,100123.06
2023-05-21T19:25:03.119Z,100130.91
2023-05-21T19:28:05.335Z,100127.34
2023-05-21T19:31:09.973Z,100131.63
2023-05-21T19:34:12.156Z,100136.31
2023-05-21T19:37:14.683Z,100134.34
2023-05-21T19:40:17.756Z,100137.81
2023-05-21T19:43:20.264Z,100137.75
2023-05-21T19:46:22.780Z,100136.13
2023-05-21T19:49:25.275Z,100133.72
2023-05-21T19:52:27.454Z,100139.19
2023-05-21T19:55:33.288Z,100142.25
2023-05-21T19:58:35.599Z,100135.50
2023-05-21T20:01:39.986Z,100142.84
2023-05-21T20:04:42.634Z,100138.47
2023-05-21T20:07:44.944Z,100138.34
2023-05-21T20:10:49.665Z,100144.09
2023-05-21T20:13:54.302Z,100143.66
2023-05-21T20:16:58.452Z,100150.25
2023-05-21T20:20:01.454Z,100137.59
2023-05-21T20:23:03.977Z,100137.19
2023-05-21T20:26:07.176Z,100135.56
2023-05-21T20:29:09.635Z,100142.13
2023-05-21T20:32:12.357Z,100131.91
2023-05-21T20:35:14.846Z,100136.13
2023-05-21T20:38:21.033Z,100139.22
2023-05-21T20:41:25.197Z,100139.56
2023-05-21T20:44:28.823Z,100132.75
2023-05-21T20:47:31.444Z,100146.44
2023-05-21T20:50:34.796Z,100139.38
2023-05-21T20:53:37.315Z,100140.78
2023-05-21T20:56:42.684Z,100143.94
2023-05-21T20:59:45.684Z,100140.78
2023-05-21T21:02:47.902Z,100138.53
2023-05-21T21:05:50.643Z,100132.56
2023-05-21T21:08:55.450Z,100132.56
2023-05-21T21:12:06.272Z,100131.78
2023-05-21T21:15:14.206Z,100133.78
2023-05-21T21:18:16.769Z,100128.56
2023-05-21T21:21:18.926Z,100134.44
2023-05-21T21:24:21.393Z,100128.47
2023-05-21T21:27:23.592Z,100130.75
2023-05-21T21:30:26.043Z,100132.66
2023-05-21T21:33:28.453Z,100141.97
2023-05-21T21:36:31.328Z,100134.41
2023-05-21T21:39:33.552Z,100128.84
2023-05-21T21:42:36.377Z,100134.78
2023-05-21T21:45:38.615Z,100133.13
2023-05-21T21:48:41.060Z,100137.41
2023-05-21T21:51:46.785Z,100138.41
2023-05-21T21:54:49.296Z,100149.28
2023-05-21T21:57:51.466Z,100167.25
2023-05-21T22:00:54.131Z,100156.88
2023-05-21T22:03:56.683Z,100167.56
2023-05-21T22:06:58.969Z,100157.66
2023-05-21T22:10:01.647Z,100160.19
2023-05-21T22:13:04.865Z,100163.13
2023-05-21T22:16:07.833Z,100159.44
2023-05-21T22:19:12.686Z,100163.81
2023-05-21T22:22:15.201Z,100156.41
2023-05-21T22:25:17.795Z,100160.00
2023-05-21T22:28:22.389Z,100163.28
2023-05-21T22:31:24.938Z,100166.53
2023-05-21T22:34:27.501Z,100174.44
2023-05-21T22:37:29.843Z,100163.41
2023-05-21T22:40:32.364Z,100163.00
2023-05-21T22:43:35.521Z,100177.78
2023-05-21T22:46:38.356Z,100175.78
2023-05-21T22:49:40.959Z,100181.94
2023-05-21T22:52:43.610Z,100178.31
2023-05-21T22:55:45.833Z,100172.75
2023-05-21T22:58:48.280Z,100177.84
2023-05-21T23:01:50.664Z,100171.88
2023-05-21T23:04:53.154Z,100172.16
2023-05-21T23:07:55.417Z,100168.16
2023-05-21T23:10:57.969Z,100179.44
2023-05-21T23:14:00.548Z,100171.09
2023-05-21T23:17:04.439Z,100162.59
2023-05-21T23:20:08.822Z,100169.91
2023-05-21T23:23:11.299Z,100167.16
2023-05-21T23:26:13.505Z,100165.09
2023-05-21T23:29:15.963Z,100176.72
2023-05-21T23:32:18.312Z,100181.41
2023-05-21T23:35:20.802Z,100169.28
2023-05-21T23:38:23.033Z,100167.31
2023-05-21T23:41:27.521Z,100164.56
2023-05-21T23:44:29.716Z,100167.66
2023-05-21T23:47:32.184Z,100167.59
2023-05-21T23:50:34.539Z,100148.97
2023-05-21T23:53:37.005Z,100151.41
2023-05-21T23:56:39.248Z,100149.94
2023-05-21T23:59:41.756Z,100147.69
